Three Mile, North Carolina
Current Conditions -  °F | °C
As of 4:55 AM on Friday 28 Nov 2014 (Local Time) from KTNB Reporting Station
Overcast Overcast  
Wind Chill: 10°   Ceiling: 2400
Heat Index: 21°   Visibility: 10mi
Dew Point: 12°   Wind: 12mph
Humidity: 68%   Direction: 310°NW
Pressure: 30.19"   Gusts: 17mph
Location:  36.0227°N, 81.9499°W
Report Text: KTNB 280955Z AUTO 31010G15KT 10SM OVC024 M06/M11 A3019 RMK AO2 T10591110
Loading
Personal Weather Stations






























Interactive Weather Map New forecast layout! Learn more

10-Day Weather Forecast

Advertisements
Track Severe Weather on mobile